createdAt,value
2019-02-14T00:00:43.535Z,6.66
2019-02-14T00:03:09.293Z,6.66
2019-02-14T00:05:35.047Z,6.68
2019-02-14T00:08:00.802Z,6.62
2019-02-14T00:10:26.565Z,6.67
2019-02-14T00:12:52.331Z,6.64
2019-02-14T00:15:18.095Z,6.61
2019-02-14T00:17:43.841Z,6.57
2019-02-14T00:20:09.592Z,6.60
2019-02-14T00:22:35.354Z,6.63
2019-02-14T00:25:01.129Z,6.60
2019-02-14T00:27:26.892Z,6.59
2019-02-14T00:29:52.641Z,6.57
2019-02-14T00:32:18.425Z,6.58
2019-02-14T00:34:44.196Z,6.59
2019-02-14T00:37:09.970Z,6.60
2019-02-14T00:39:35.716Z,6.57
2019-02-14T00:42:01.477Z,6.56
2019-02-14T00:44:27.227Z,6.56
2019-02-14T00:46:52.992Z,6.50
2019-02-14T00:49:18.736Z,6.57
2019-02-14T00:51:44.495Z,6.57
2019-02-14T00:54:10.248Z,6.51
2019-02-14T00:56:36.010Z,6.49
2019-02-14T00:59:01.757Z,6.52
2019-02-14T01:01:27.521Z,6.49
2019-02-14T01:03:53.264Z,6.48
2019-02-14T01:06:19.386Z,6.52
2019-02-14T01:08:45.449Z,6.50
2019-02-14T01:11:11.220Z,6.49
2019-02-14T01:13:36.974Z,6.48
2019-02-14T01:16:02.731Z,6.46
2019-02-14T01:18:28.481Z,6.45
2019-02-14T01:20:54.233Z,6.41
2019-02-14T01:23:20.000Z,6.42
2019-02-14T01:25:45.747Z,6.38
2019-02-14T01:28:11.512Z,6.38
2019-02-14T01:30:37.256Z,6.38
2019-02-14T01:33:03.040Z,6.40
2019-02-14T01:35:28.804Z,6.33
2019-02-14T01:37:54.571Z,6.30
2019-02-14T01:40:20.331Z,6.34
2019-02-14T01:42:46.090Z,6.31
2019-02-14T01:45:11.941Z,6.32
2019-02-14T01:47:37.699Z,6.27
2019-02-14T01:50:45.126Z,6.30
2019-02-14T01:53:10.887Z,6.27
2019-02-14T01:55:36.647Z,6.25
2019-02-14T01:58:02.422Z,6.07
2019-02-14T02:00:28.173Z,6.17
2019-02-14T02:02:53.944Z,6.11
2019-02-14T02:05:19.700Z,6.10
2019-02-14T02:07:45.467Z,6.11
2019-02-14T02:10:11.219Z,6.02
2019-02-14T02:12:36.997Z,6.02
2019-02-14T02:18:29.818Z,5.97
2019-02-14T02:21:37.246Z,5.91
2019-02-14T02:24:03.014Z,5.87
2019-02-14T02:26:28.770Z,5.81
2019-02-14T02:28:54.537Z,5.82
2019-02-14T02:31:20.296Z,5.79
2019-02-14T02:33:46.074Z,5.74
2019-02-14T02:36:11.846Z,5.74
2019-02-14T02:38:37.611Z,5.74
2019-02-14T02:41:03.370Z,5.75
2019-02-14T02:44:10.805Z,5.71
2019-02-14T02:46:36.579Z,5.72
2019-02-14T02:49:02.345Z,5.64
2019-02-14T02:51:47.997Z,5.62
2019-02-14T02:54:13.770Z,5.62
2019-02-14T02:56:39.524Z,5.54
2019-02-14T02:59:05.289Z,5.52
2019-02-14T03:01:31.046Z,5.53
2019-02-14T03:03:56.820Z,5.51
2019-02-14T03:06:22.572Z,5.45
2019-02-14T03:08:48.337Z,5.43
2019-02-14T03:11:14.098Z,5.35
2019-02-14T03:16:13.341Z,5.26
2019-02-14T03:18:39.190Z,5.26
2019-02-14T03:21:04.899Z,5.23
2019-02-14T03:23:30.657Z,5.20
2019-02-14T03:25:56.421Z,5.17
2019-02-14T03:28:22.183Z,5.15
2019-02-14T03:30:47.957Z,5.15
2019-02-14T03:33:13.741Z,5.15
2019-02-14T03:35:39.502Z,5.11
2019-02-14T03:38:05.252Z,5.12
2019-02-14T03:40:31.023Z,5.12
2019-02-14T03:42:56.780Z,5.07
2019-02-14T03:45:22.558Z,5.08
2019-02-14T03:47:48.320Z,5.09
2019-02-14T03:50:14.082Z,5.10
2019-02-14T03:52:39.829Z,5.12
2019-02-14T03:58:18.861Z,5.12
2019-02-14T04:00:44.633Z,5.17
2019-02-14T04:03:10.398Z,5.18
2019-02-14T04:05:36.169Z,5.15
2019-02-14T04:08:01.923Z,5.18
2019-02-14T04:10:27.687Z,5.20
2019-02-14T04:12:53.443Z,5.20
2019-02-14T04:15:19.220Z,5.15
2019-02-14T04:17:44.962Z,5.14
2019-02-14T04:20:52.404Z,5.19
2019-02-14T04:23:18.153Z,5.15
2019-02-14T04:25:43.918Z,5.16
2019-02-14T04:28:09.678Z,5.20
2019-02-14T04:33:28.918Z,5.25
2019-02-14T04:35:54.676Z,5.29
2019-02-14T04:38:20.439Z,5.25
2019-02-14T04:40:46.207Z,5.27
2019-02-14T04:43:11.964Z,5.26
2019-02-14T04:45:37.734Z,5.24
2019-02-14T04:48:03.493Z,5.27
2019-02-14T04:50:29.259Z,5.30
2019-02-14T04:52:55.029Z,5.31
2019-02-14T04:55:20.800Z,5.27
2019-02-14T04:57:46.570Z,5.27
2019-02-14T05:00:54.031Z,5.22
2019-02-14T05:03:19.787Z,5.22
2019-02-14T05:05:45.575Z,5.25
2019-02-14T05:08:11.327Z,5.26
2019-02-14T05:10:37.083Z,5.22
2019-02-14T05:13:02.847Z,5.29
2019-02-14T05:15:28.605Z,5.29
2019-02-14T05:17:54.396Z,5.26
2019-02-14T05:20:20.152Z,5.28
2019-02-14T05:22:45.918Z,5.25
2019-02-14T05:25:11.679Z,5.25
2019-02-14T05:27:37.444Z,5.21
2019-02-14T05:30:44.889Z,5.25
2019-02-14T05:33:10.673Z,5.21
2019-02-14T05:35:36.421Z,5.10
2019-02-14T05:38:02.186Z,5.13
2019-02-14T05:40:27.941Z,5.17
2019-02-14T05:42:53.699Z,5.14
2019-02-14T05:45:19.456Z,5.13
2019-02-14T05:47:45.324Z,5.12
2019-02-14T05:53:38.166Z,5.11
2019-02-14T05:56:03.936Z,5.15
2019-02-14T05:58:29.819Z,5.09
2019-02-14T06:00:55.587Z,5.12
2019-02-14T06:03:21.385Z,5.13
2019-02-14T06:05:47.141Z,5.14
2019-02-14T06:08:12.910Z,5.12
2019-02-14T06:10:38.702Z,5.16
2019-02-14T06:13:04.451Z,5.15
2019-02-14T06:15:30.244Z,5.10
2019-02-14T06:17:56.018Z,5.08
2019-02-14T06:20:21.768Z,5.07
2019-02-14T06:22:47.532Z,5.06
2019-02-14T06:25:13.299Z,5.03
2019-02-14T06:27:39.073Z,5.00
2019-02-14T06:30:24.709Z,4.94
2019-02-14T06:32:50.492Z,4.91
2019-02-14T06:35:16.256Z,4.88
2019-02-14T06:37:42.054Z,4.99
2019-02-14T06:43:34.881Z,4.87
2019-02-14T06:46:00.629Z,4.97
2019-02-14T06:48:26.396Z,5.06
2019-02-14T06:50:52.172Z,4.99
2019-02-14T06:53:17.935Z,5.00
2019-02-14T06:55:43.690Z,5.03
2019-02-14T06:58:09.473Z,5.04
2019-02-14T07:00:35.227Z,5.00
2019-02-14T07:03:01.013Z,4.99
2019-02-14T07:05:26.781Z,4.96
2019-02-14T07:07:52.539Z,4.99
2019-02-14T07:10:18.304Z,4.88
2019-02-14T07:12:44.058Z,4.91
2019-02-14T07:15:51.517Z,4.92
2019-02-14T07:18:17.287Z,4.88
2019-02-14T07:20:43.045Z,4.92
2019-02-14T07:23:08.792Z,4.97
2019-02-14T07:25:34.558Z,4.97
2019-02-14T07:28:00.314Z,5.00
2019-02-14T07:31:07.746Z,4.99
2019-02-14T07:33:33.529Z,4.96
2019-02-14T07:36:19.213Z,4.98
2019-02-14T07:38:45.097Z,4.98
2019-02-14T07:41:30.738Z,5.02
2019-02-14T07:43:56.528Z,5.02
2019-02-14T07:46:23.019Z,5.03
2019-02-14T07:48:49.946Z,5.00
2019-02-14T07:51:15.702Z,4.98
2019-02-14T07:53:41.541Z,5.02
2019-02-14T07:56:07.356Z,4.98
2019-02-14T07:58:33.106Z,5.00
2019-02-14T08:00:59.084Z,4.94
2019-02-14T08:03:44.769Z,5.00
2019-02-14T08:06:10.546Z,5.00
2019-02-14T08:08:36.295Z,4.97
2019-02-14T08:11:02.061Z,4.99
2019-02-14T08:13:27.818Z,4.98
2019-02-14T08:15:53.590Z,4.96
2019-02-14T08:18:19.338Z,4.99
2019-02-14T08:20:45.112Z,5.00
2019-02-14T08:23:10.869Z,5.07
2019-02-14T08:25:36.649Z,5.10
2019-02-14T08:28:02.406Z,5.19
2019-02-14T08:30:28.189Z,5.14
2019-02-14T08:32:53.962Z,5.06
2019-02-14T08:35:19.736Z,5.12
2019-02-14T08:37:46.230Z,5.19
2019-02-14T08:40:55.391Z,5.25
2019-02-14T08:43:21.194Z,5.29
2019-02-14T08:45:46.983Z,5.37
2019-02-14T08:48:12.731Z,5.41
2019-02-14T08:50:38.520Z,5.45
2019-02-14T08:53:04.273Z,5.49
2019-02-14T08:55:30.101Z,5.59
2019-02-14T08:57:55.850Z,5.59
2019-02-14T09:00:21.629Z,5.69
2019-02-14T09:02:47.387Z,5.75
2019-02-14T09:05:13.157Z,5.76
2019-02-14T09:07:38.913Z,5.72
2019-02-14T09:10:46.356Z,5.72
2019-02-14T09:13:17.308Z,5.79
2019-02-14T09:15:39.781Z,5.73
2019-02-14T09:18:05.545Z,5.73
2019-02-14T09:20:31.304Z,5.77
2019-02-14T09:22:57.054Z,5.76
2019-02-14T09:25:22.835Z,5.82
2019-02-14T09:27:48.608Z,5.80
2019-02-14T09:30:14.382Z,5.91
2019-02-14T09:32:40.335Z,5.99
2019-02-14T09:35:47.791Z,6.03
2019-02-14T09:38:13.540Z,6.01
2019-02-14T09:40:39.311Z,6.08
2019-02-14T09:43:05.084Z,6.10
2019-02-14T09:45:30.842Z,6.12
2019-02-14T09:47:56.611Z,6.11
2019-02-14T09:50:22.361Z,6.20
2019-02-14T09:52:48.110Z,6.25
2019-02-14T09:55:13.878Z,6.36
2019-02-14T09:57:39.640Z,6.50
2019-02-14T10:00:47.093Z,6.49
2019-02-14T10:03:12.841Z,6.43
2019-02-14T10:05:38.611Z,6.51
2019-02-14T10:08:12.546Z,6.49
2019-02-14T10:10:32.037Z,6.54
2019-02-14T10:12:57.801Z,6.73
2019-02-14T10:15:23.554Z,6.79
2019-02-14T10:17:49.321Z,6.72
2019-02-14T10:20:56.773Z,6.73
2019-02-14T10:23:22.545Z,6.73
2019-02-14T10:25:48.334Z,6.68
2019-02-14T10:28:14.119Z,6.72
2019-02-14T10:30:40.289Z,6.84
2019-02-14T10:33:07.574Z,6.89
2019-02-14T10:35:33.347Z,7.01
2019-02-14T10:37:59.142Z,6.98
2019-02-14T10:40:24.907Z,7.04
2019-02-14T10:42:50.668Z,7.04
2019-02-14T10:45:58.110Z,7.14
2019-02-14T10:48:23.860Z,7.41
2019-02-14T10:50:49.616Z,7.60
2019-02-14T10:53:15.382Z,7.67
2019-02-14T10:55:41.156Z,8.03
2019-02-14T10:58:06.945Z,8.25
2019-02-14T11:03:26.260Z,8.15
2019-02-14T11:05:52.027Z,8.13
2019-02-14T11:08:17.794Z,8.21
2019-02-14T11:10:43.547Z,8.31
2019-02-14T11:13:09.313Z,8.29
2019-02-14T11:15:35.067Z,8.33
2019-02-14T11:18:00.839Z,8.41
2019-02-14T11:20:26.597Z,8.55
2019-02-14T11:22:52.389Z,8.77
2019-02-14T11:25:59.850Z,8.88
2019-02-14T11:28:25.637Z,8.82
2019-02-14T11:30:51.401Z,8.90
2019-02-14T11:33:17.209Z,8.99
2019-02-14T11:35:42.963Z,9.00
2019-02-14T11:38:08.746Z,9.06
2019-02-14T11:40:34.512Z,9.14
2019-02-14T11:43:00.270Z,9.13
2019-02-14T11:45:26.142Z,9.15
2019-02-14T11:47:51.935Z,9.24
2019-02-14T11:50:17.687Z,9.23
2019-02-14T11:52:43.466Z,9.32
2019-02-14T11:55:50.889Z,9.39
2019-02-14T11:58:36.548Z,9.52
2019-02-14T12:01:22.201Z,9.48
2019-02-14T12:03:47.994Z,9.50
2019-02-14T12:06:17.522Z,9.50
2019-02-14T12:09:01.307Z,9.70
2019-02-14T12:11:27.088Z,9.70
2019-02-14T12:13:52.857Z,9.74
2019-02-14T12:16:18.610Z,9.66
2019-02-14T12:18:44.377Z,9.68
2019-02-14T12:21:10.132Z,9.62
2019-02-14T12:23:35.913Z,9.56
2019-02-14T12:26:01.670Z,9.62
2019-02-14T12:28:27.430Z,9.76
2019-02-14T12:30:53.187Z,9.83
2019-02-14T12:33:18.946Z,9.84
2019-02-14T12:35:44.733Z,9.87
2019-02-14T12:38:10.501Z,9.85
2019-02-14T12:40:36.297Z,9.86
2019-02-14T12:43:02.057Z,9.86
2019-02-14T12:45:27.830Z,9.89
2019-02-14T12:47:53.578Z,9.87
2019-02-14T12:50:19.360Z,9.88
2019-02-14T12:52:45.119Z,9.94
2019-02-14T12:55:10.894Z,10.10
2019-02-14T12:57:36.648Z,9.98
2019-02-14T13:00:44.114Z,10.00
2019-02-14T13:03:29.778Z,10.14
2019-02-14T13:06:15.442Z,10.19
2019-02-14T13:08:41.206Z,10.19
2019-02-14T13:11:06.984Z,10.12
2019-02-14T13:13:32.755Z,10.06
2019-02-14T13:15:58.519Z,10.08
2019-02-14T13:18:24.288Z,10.14
2019-02-14T13:20:50.047Z,10.16
2019-02-14T13:23:15.818Z,10.17
2019-02-14T13:25:41.589Z,10.23
2019-02-14T13:28:07.357Z,10.15
2019-02-14T13:30:33.140Z,10.22
2019-02-14T13:32:58.908Z,10.18
2019-02-14T13:35:24.698Z,10.27
2019-02-14T13:37:50.454Z,10.25
2019-02-14T13:40:16.266Z,10.28
2019-02-14T13:42:42.063Z,10.23
2019-02-14T13:45:49.503Z,10.03
2019-02-14T13:48:15.277Z,9.77
2019-02-14T13:50:41.046Z,9.71
2019-02-14T13:53:06.824Z,9.52
2019-02-14T13:55:32.617Z,9.46
2019-02-14T13:57:58.372Z,9.61
2019-02-14T14:01:05.813Z,9.65
2019-02-14T14:03:31.570Z,9.70
2019-02-14T14:05:57.353Z,9.59
2019-02-14T14:08:23.110Z,9.62
2019-02-14T14:10:48.878Z,9.57
2019-02-14T14:13:14.728Z,9.59
2019-02-14T14:15:40.501Z,9.57
2019-02-14T14:18:06.250Z,9.60
2019-02-14T14:20:32.003Z,9.46
2019-02-14T14:22:57.789Z,9.40
2019-02-14T14:25:23.561Z,9.51
2019-02-14T14:27:49.318Z,9.54
2019-02-14T14:30:15.083Z,9.45
2019-02-14T14:32:40.851Z,9.51
2019-02-14T14:35:48.330Z,9.56
2019-02-14T14:38:34.004Z,9.42
2019-02-14T14:40:59.779Z,9.42
2019-02-14T14:43:45.538Z,9.29
2019-02-14T14:48:49.470Z,9.36
2019-02-14T14:51:15.463Z,9.32
2019-02-14T14:53:41.293Z,9.40
2019-02-14T14:56:07.034Z,9.39
2019-02-14T14:58:32.799Z,9.32
2019-02-14T15:00:58.550Z,9.29
2019-02-14T15:03:24.321Z,9.20
2019-02-14T15:05:50.067Z,9.15
2019-02-14T15:08:15.835Z,9.01
2019-02-14T15:10:41.603Z,8.99
2019-02-14T15:13:07.361Z,8.93
2019-02-14T15:15:33.130Z,8.87
2019-02-14T15:17:58.895Z,8.84
2019-02-14T15:20:24.650Z,8.80
2019-02-14T15:22:50.419Z,8.81
2019-02-14T15:25:16.185Z,8.72
2019-02-14T15:27:41.973Z,8.69
2019-02-14T15:30:07.839Z,8.64
2019-02-14T15:32:33.586Z,8.67
2019-02-14T15:34:59.362Z,8.58
2019-02-14T15:37:25.133Z,8.56
2019-02-14T15:39:51.345Z,8.50
2019-02-14T15:42:37.633Z,8.40
2019-02-14T15:45:23.534Z,8.38
2019-02-14T15:47:49.317Z,8.38
2019-02-14T15:50:15.757Z,8.29
2019-02-14T15:52:41.832Z,8.18
2019-02-14T15:55:28.977Z,8.18
2019-02-14T15:57:54.747Z,8.10
2019-02-14T16:03:15.307Z,7.90
2019-02-14T16:05:42.677Z,7.90
2019-02-14T16:08:09.331Z,7.75
2019-02-14T16:10:35.103Z,7.73
2019-02-14T16:13:01.102Z,7.72
2019-02-14T16:15:28.812Z,7.63
2019-02-14T16:17:54.674Z,7.57
2019-02-14T16:20:20.442Z,7.50
2019-02-14T16:22:46.290Z,7.41
2019-02-14T16:25:12.073Z,7.36
2019-02-14T16:27:57.730Z,7.33
2019-02-14T16:30:23.510Z,7.33
2019-02-14T16:32:49.273Z,7.19
2019-02-14T16:35:15.053Z,7.14
2019-02-14T16:37:40.807Z,7.08
2019-02-14T16:40:48.273Z,7.03
2019-02-14T16:43:14.026Z,6.89
2019-02-14T16:45:39.797Z,6.85
2019-02-14T16:48:05.568Z,6.77
2019-02-14T16:50:31.346Z,6.91
2019-02-14T16:52:57.119Z,7.07
2019-02-14T16:55:22.889Z,7.20
2019-02-14T16:57:48.656Z,7.18
2019-02-14T17:00:14.450Z,7.10
2019-02-14T17:02:40.211Z,7.00
2019-02-14T17:07:59.907Z,6.93
2019-02-14T17:10:25.673Z,6.75
2019-02-14T17:12:51.468Z,6.56
2019-02-14T17:15:17.234Z,6.65
2019-02-14T17:17:42.986Z,6.56
2019-02-14T17:20:50.428Z,6.49
2019-02-14T17:23:16.200Z,6.50
2019-02-14T17:25:41.985Z,6.38
2019-02-14T17:28:07.746Z,6.39
2019-02-14T17:30:33.534Z,6.29
2019-02-14T17:32:59.281Z,6.31
2019-02-14T17:35:25.084Z,6.28
2019-02-14T17:37:50.840Z,6.31
2019-02-14T17:40:16.605Z,6.25
2019-02-14T17:42:42.368Z,6.11
2019-02-14T17:45:49.836Z,5.99
2019-02-14T17:48:15.588Z,5.83
2019-02-14T17:50:41.353Z,5.66
2019-02-14T17:53:07.112Z,5.66
2019-02-14T17:55:32.890Z,5.58
2019-02-14T17:57:58.643Z,5.55
2019-02-14T18:03:02.467Z,5.58
2019-02-14T18:05:28.260Z,5.46
2019-02-14T18:07:54.010Z,5.32
2019-02-14T18:10:19.766Z,5.17
2019-02-14T18:12:45.543Z,5.13
2019-02-14T18:15:53.002Z,5.07
2019-02-14T18:18:18.762Z,5.12
2019-02-14T18:20:44.527Z,5.06
2019-02-14T18:23:10.302Z,4.97
2019-02-14T18:25:36.064Z,4.95
2019-02-14T18:28:01.833Z,4.98
2019-02-14T18:30:27.592Z,5.01
2019-02-14T18:32:53.366Z,4.94
2019-02-14T18:35:19.136Z,4.90
2019-02-14T18:37:44.909Z,4.98
2019-02-14T18:40:10.761Z,5.07
2019-02-14T18:43:18.201Z,5.06
2019-02-14T18:45:43.959Z,5.02
2019-02-14T18:48:09.742Z,5.07
2019-02-14T18:50:35.502Z,5.11
2019-02-14T18:53:01.270Z,5.12
2019-02-14T18:55:27.032Z,5.05
2019-02-14T18:57:52.802Z,5.01
2019-02-14T19:03:45.632Z,4.99
2019-02-14T19:06:11.393Z,5.04
2019-02-14T19:08:37.193Z,5.05
2019-02-14T19:11:03.063Z,4.98
2019-02-14T19:13:28.832Z,4.90
2019-02-14T19:16:36.287Z,4.83
2019-02-14T19:19:02.056Z,4.74
2019-02-14T19:21:27.828Z,4.67
2019-02-14T19:23:53.590Z,4.53
2019-02-14T19:26:19.344Z,4.50
2019-02-14T19:28:45.107Z,4.49
2019-02-14T19:31:10.867Z,4.37
2019-02-14T19:33:36.639Z,4.28
2019-02-14T19:36:02.403Z,4.26
2019-02-14T19:38:28.174Z,4.22
2019-02-14T19:40:53.931Z,4.21
2019-02-14T19:43:19.691Z,4.21
2019-02-14T19:45:45.460Z,4.11
2019-02-14T19:48:11.228Z,4.03
2019-02-14T19:50:36.998Z,3.91
2019-02-14T19:53:02.754Z,3.80
2019-02-14T19:55:28.530Z,3.81
2019-02-14T19:57:54.277Z,3.76
2019-02-14T20:00:20.063Z,3.67
2019-02-14T20:02:45.832Z,3.64
2019-02-14T20:05:11.631Z,3.66
2019-02-14T20:07:37.377Z,3.67
2019-02-14T20:10:44.828Z,3.59
2019-02-14T20:13:10.585Z,3.42
2019-02-14T20:15:37.610Z,3.36
2019-02-14T20:18:04.129Z,3.34
2019-02-14T20:20:29.905Z,3.31
2019-02-14T20:22:55.685Z,3.19
2019-02-14T20:26:03.130Z,3.05
2019-02-14T20:28:28.882Z,3.02
2019-02-14T20:30:54.676Z,2.99
2019-02-14T20:33:20.431Z,3.00
2019-02-14T20:35:46.229Z,2.95
2019-02-14T20:38:11.990Z,2.95
2019-02-14T20:40:37.759Z,2.87
2019-02-14T20:43:03.526Z,2.76
2019-02-14T20:45:29.291Z,2.69
2019-02-14T20:47:56.912Z,2.66
2019-02-14T20:50:22.732Z,2.67
2019-02-14T20:52:48.487Z,2.67
2019-02-14T20:55:34.135Z,2.74
2019-02-14T20:57:59.910Z,2.65
2019-02-14T21:00:45.571Z,2.53
2019-02-14T21:03:11.347Z,2.40
2019-02-14T21:05:37.121Z,2.23
2019-02-14T21:08:02.894Z,2.23
2019-02-14T21:10:28.673Z,2.11
2019-02-14T21:12:54.429Z,2.10
2019-02-14T21:15:40.138Z,2.15
2019-02-14T21:18:05.896Z,2.10
2019-02-14T21:21:13.350Z,1.96
2019-02-14T21:23:39.106Z,1.90
2019-02-14T21:26:04.923Z,1.81
2019-02-14T21:28:30.674Z,1.76
2019-02-14T21:30:56.431Z,1.76
2019-02-14T21:33:22.209Z,1.79
2019-02-14T21:35:48.014Z,1.70
2019-02-14T21:38:13.777Z,1.60
2019-02-14T21:40:39.527Z,1.56
2019-02-14T21:43:05.321Z,1.64
2019-02-14T21:45:31.191Z,1.61
2019-02-14T21:47:57.141Z,1.58
2019-02-14T21:50:22.964Z,1.44
2019-02-14T21:52:48.710Z,1.44
2019-02-14T21:55:56.161Z,1.36
2019-02-14T21:58:21.942Z,1.28
2019-02-14T22:00:47.717Z,1.24
2019-02-14T22:03:13.517Z,1.34
2019-02-14T22:05:39.284Z,1.37
2019-02-14T22:08:05.167Z,1.40
2019-02-14T22:10:30.967Z,1.41
2019-02-14T22:12:56.736Z,1.25
2019-02-14T22:16:04.197Z,1.29
2019-02-14T22:18:29.971Z,1.22
2019-02-14T22:20:55.724Z,1.16
2019-02-14T22:23:21.503Z,1.19
2019-02-14T22:25:47.378Z,1.07
2019-02-14T22:28:13.158Z,0.97
2019-02-14T22:30:38.907Z,0.88
2019-02-14T22:33:04.678Z,0.99
2019-02-14T22:35:30.458Z,1.06
2019-02-14T22:37:56.241Z,1.02
2019-02-14T22:40:22.019Z,0.98
2019-02-14T22:46:12.196Z,0.93
2019-02-14T22:48:37.969Z,0.95
2019-02-14T22:51:03.745Z,0.81
2019-02-14T22:53:29.525Z,0.74
2019-02-14T22:55:55.288Z,0.79
2019-02-14T22:58:21.050Z,0.77
2019-02-14T23:01:28.478Z,0.65
2019-02-14T23:03:54.325Z,0.52
2019-02-14T23:06:20.086Z,0.42
2019-02-14T23:08:45.855Z,0.35
2019-02-14T23:11:11.628Z,0.31
2019-02-14T23:13:37.398Z,0.25
2019-02-14T23:16:03.171Z,0.27
2019-02-14T23:18:28.988Z,0.26
2019-02-14T23:20:54.702Z,0.19
2019-02-14T23:23:20.491Z,0.18
2019-02-14T23:25:46.241Z,0.17
2019-02-14T23:28:12.019Z,0.13
2019-02-14T23:30:37.789Z,0.13
2019-02-14T23:33:03.528Z,0.09
2019-02-14T23:35:29.336Z,0.06
2019-02-14T23:37:55.084Z,0.18
2019-02-14T23:40:20.871Z,0.28
2019-02-14T23:42:46.632Z,0.31
2019-02-14T23:45:12.404Z,0.35
2019-02-14T23:47:38.163Z,0.38
2019-02-14T23:50:45.641Z,0.41
2019-02-14T23:53:11.394Z,0.43
2019-02-14T23:55:37.159Z,0.39
2019-02-14T23:58:02.923Z,0.37
